SBPK/PET METAR and TAF weather

Enter ICAO airport designator
Station Type Date Time Source
SBPK METAR 2019/02/17 21:45 UTC NOAA

SBPK 172145Z 09010KT 9999 SCT030 25/20 Q1014


Station Type Date Time Source
SBPK Decoded METAR 2019/02/17 21:45 UTC NOAA

Pelotas, Brazil (SBPK) 31-52S 052-21W 13M
Feb 17, 2019 - 04:45 PM EST / 2019.02.17 2145 UTC
Wind: from the E (090 degrees) at 12 MPH (10 KT):0
Visibility: greater than 7 mile(s):0
Sky conditions: partly cloudy
Temperature: 77 F (25 C)
Dew Point: 68 F (20 C)
Relative Humidity: 73%
Pressure (altimeter): 29.94 in. Hg (1014 hPa)
ob: SBPK 172145Z 09010KT 9999 SCT030 25/20 Q1014
cycle: 22

Station Type Date Time Source
SBPK TAF 2019/02/18 06:58 UTC NOAA

TAF SBPK 180130Z 1806/1906 10007KT 9999 SCT030 TN21/1808Z TX29/1818Z
RMK PEB


Example: see airport list